createdAt,value
2022-11-16T00:00:22.090Z,94.000000
2022-11-16T00:05:27.955Z,94.000000
2022-11-16T00:10:24.833Z,94.000000
2022-11-16T00:15:22.061Z,94.000000
2022-11-16T00:20:22.056Z,94.000000
2022-11-16T00:25:22.563Z,94.000000
2022-11-16T00:30:22.103Z,94.750000
2022-11-16T00:35:22.735Z,94.636364
2022-11-16T00:40:19.710Z,94.000000
2022-11-16T00:45:22.853Z,94.000000
2022-11-16T00:50:22.641Z,94.000000
2022-11-16T00:55:22.484Z,94.000000
2022-11-16T01:00:22.526Z,93.833333
2022-11-16T01:05:23.295Z,93.000000
2022-11-16T01:10:22.776Z,92.250000
2022-11-16T01:15:22.613Z,92.000000
2022-11-16T01:20:22.611Z,91.076923
2022-11-16T01:25:24.010Z,91.000000
2022-11-16T01:30:22.519Z,91.000000
2022-11-16T01:35:23.255Z,90.636364
2022-11-16T01:40:21.382Z,90.250000
2022-11-16T01:45:24.520Z,90.000000
2022-11-16T01:50:22.981Z,89.583333
2022-11-16T01:55:23.107Z,89.100000
2022-11-16T02:00:22.053Z,89.090909
2022-11-16T02:05:24.853Z,89.111111
2022-11-16T02:10:23.012Z,89.000000
2022-11-16T02:15:19.037Z,89.000000
2022-11-16T02:20:22.982Z,89.000000
2022-11-16T02:25:25.400Z,89.000000
2022-11-16T02:30:23.037Z,88.000000
2022-11-16T02:35:19.632Z,88.000000
2022-11-16T02:40:23.451Z,88.000000
2022-11-16T02:45:25.799Z,88.000000
2022-11-16T02:50:23.380Z,88.909091
2022-11-16T02:55:19.914Z,89.000000
2022-11-16T03:00:23.417Z,89.090909
2022-11-16T03:05:26.236Z,90.000000
2022-11-16T03:10:23.471Z,90.000000
2022-11-16T03:15:20.456Z,90.000000
2022-11-16T03:20:24.379Z,90.000000
2022-11-16T03:25:23.383Z,90.000000
2022-11-16T03:30:24.128Z,90.000000
2022-11-16T03:35:23.830Z,90.000000
2022-11-16T03:40:24.244Z,90.000000
2022-11-16T03:45:23.864Z,90.000000
2022-11-16T03:50:23.712Z,90.000000
2022-11-16T03:55:21.347Z,90.818182
2022-11-16T04:00:24.574Z,91.000000
2022-11-16T04:05:23.851Z,91.555556
2022-11-16T04:10:23.915Z,92.000000
2022-11-16T04:15:23.898Z,92.200000
2022-11-16T04:20:25.091Z,93.000000
2022-11-16T04:25:23.789Z,93.000000
2022-11-16T04:30:19.246Z,93.000000
2022-11-16T04:35:24.382Z,93.000000
2022-11-16T04:40:25.537Z,93.000000
2022-11-16T04:45:24.380Z,93.000000
2022-11-16T04:50:19.808Z,93.076923
2022-11-16T04:55:24.275Z,93.750000
2022-11-16T05:00:25.908Z,94.000000
2022-11-16T05:05:24.308Z,94.000000
2022-11-16T05:10:20.568Z,94.000000
2022-11-16T05:15:24.300Z,94.000000
2022-11-16T05:20:26.371Z,94.000000
2022-11-16T05:25:24.267Z,94.000000
2022-11-16T05:30:20.488Z,94.181818
2022-11-16T05:35:24.628Z,94.727273
2022-11-16T05:40:26.824Z,95.000000
2022-11-16T05:45:24.589Z,95.400000
2022-11-16T05:50:20.894Z,96.846154
2022-11-16T05:55:24.847Z,96.000000
2022-11-16T06:00:27.976Z,91.636364
2022-11-16T06:05:30.248Z,89.181818
2022-11-16T06:10:21.309Z,89.666667
2022-11-16T06:15:24.685Z,88.333333
2022-11-16T06:20:27.706Z,86.636364
2022-11-16T06:25:24.694Z,85.444444
2022-11-16T06:30:24.770Z,83.454545
2022-11-16T06:35:24.871Z,82.444444
2022-11-16T06:40:28.285Z,82.416667
2022-11-16T06:45:19.002Z,83.000000
2022-11-16T06:50:24.667Z,84.125000
2022-11-16T06:55:25.451Z,84.200000
2022-11-16T07:00:24.763Z,83.727273
2022-11-16T07:05:19.494Z,83.583333
2022-11-16T07:10:24.776Z,84.000000
2022-11-16T07:15:25.663Z,83.444444
2022-11-16T07:20:24.768Z,83.000000
2022-11-16T07:25:20.269Z,82.555556
2022-11-16T07:30:24.746Z,83.076923
2022-11-16T07:35:26.438Z,82.625000
2022-11-16T07:40:25.162Z,80.727273
2022-11-16T07:45:20.578Z,80.222222
2022-11-16T07:50:23.611Z,80.333333
2022-11-16T07:55:26.922Z,79.272727
2022-11-16T08:00:25.100Z,78.000000
2022-11-16T08:05:21.006Z,79.333333
2022-11-16T08:10:25.095Z,77.818182
2022-11-16T08:15:27.221Z,77.888889
2022-11-16T08:20:25.125Z,79.363636
2022-11-16T08:25:21.497Z,75.777778
2022-11-16T08:30:25.111Z,74.200000
2022-11-16T08:35:27.683Z,72.777778
2022-11-16T08:40:25.688Z,73.363636
2022-11-16T08:45:21.827Z,74.000000
2022-11-16T08:50:25.653Z,74.454545
2022-11-16T08:55:28.140Z,76.600000
2022-11-16T09:00:21.226Z,79.916667
2022-11-16T09:05:22.349Z,80.250000
2022-11-16T09:10:25.513Z,78.750000
2022-11-16T09:15:28.468Z,77.272727
2022-11-16T09:20:19.498Z,78.461538
2022-11-16T09:25:25.501Z,78.454545
2022-11-16T09:30:25.838Z,77.454545
2022-11-16T09:35:28.965Z,78.166667
2022-11-16T09:40:19.958Z,75.384615
2022-11-16T09:45:23.109Z,75.111111
2022-11-16T09:55:26.004Z,76.000000
2022-11-16T10:00:20.308Z,76.000000
2022-11-16T10:05:25.856Z,75.900000
2022-11-16T10:10:26.652Z,77.500000
2022-11-16T10:15:29.786Z,76.636364
2022-11-16T10:20:23.089Z,76.846154
2022-11-16T10:25:24.278Z,77.166667
2022-11-16T10:30:27.557Z,79.083333
2022-11-16T10:35:26.396Z,78.545455
2022-11-16T10:40:21.604Z,79.545455
2022-11-16T10:45:26.346Z,80.000000
2022-11-16T10:50:28.003Z,81.153846
2022-11-16T10:55:18.839Z,81.333333
2022-11-16T11:00:22.463Z,78.833333
2022-11-16T11:05:26.425Z,77.416667
2022-11-16T11:10:28.195Z,76.916667
2022-11-16T11:15:25.331Z,74.727273
2022-11-16T11:20:22.501Z,73.200000
2022-11-16T11:25:26.504Z,72.909091
2022-11-16T11:30:28.710Z,72.166667
2022-11-16T11:35:19.758Z,73.800000
2022-11-16T11:40:22.914Z,70.363636
2022-11-16T11:45:26.081Z,67.125000
2022-11-16T11:50:29.145Z,66.909091
2022-11-16T11:55:20.245Z,68.400000
2022-11-16T12:00:23.349Z,70.692308
2022-11-16T12:05:26.781Z,70.300000
2022-11-16T12:10:29.483Z,70.800000
2022-11-16T12:15:20.515Z,73.090909
2022-11-16T12:20:23.782Z,74.000000
2022-11-16T12:25:39.157Z,74.000000
2022-11-16T12:30:30.042Z,75.800000
2022-11-16T12:35:21.021Z,77.111111
2022-11-16T12:40:24.101Z,77.181818
2022-11-16T12:45:39.405Z,77.888889
2022-11-16T12:50:27.395Z,77.909091
2022-11-16T12:55:26.390Z,78.583333
2022-11-16T13:00:27.241Z,79.000000
2022-11-16T13:05:27.727Z,79.000000
2022-11-16T13:10:27.332Z,78.800000
2022-11-16T13:15:21.831Z,78.250000
2022-11-16T13:20:27.991Z,78.692308
2022-11-16T13:25:28.741Z,78.181818
2022-11-16T13:30:19.772Z,79.090909
2022-11-16T13:35:22.706Z,79.600000
2022-11-16T13:40:27.708Z,80.000000
2022-11-16T13:45:28.923Z,81.777778
2022-11-16T13:50:19.910Z,84.076923
2022-11-16T13:55:23.001Z,85.166667
2022-11-16T14:00:27.740Z,86.333333
2022-11-16T14:05:29.392Z,87.000000
2022-11-16T14:10:20.446Z,87.555556
2022-11-16T14:15:24.157Z,88.300000
2022-11-16T14:20:27.755Z,89.000000
2022-11-16T14:25:30.001Z,90.000000
2022-11-16T14:30:20.844Z,90.000000
2022-11-16T14:35:24.046Z,91.000000
2022-11-16T14:40:28.146Z,91.100000
2022-11-16T14:45:30.375Z,92.000000
2022-11-16T14:50:21.357Z,92.200000
2022-11-16T14:55:24.616Z,93.000000
2022-11-16T15:00:28.182Z,93.000000
2022-11-16T15:05:30.613Z,93.000000
2022-11-16T15:10:21.687Z,93.545455
2022-11-16T15:15:24.816Z,94.000000
2022-11-16T15:20:40.348Z,94.000000
2022-11-16T15:25:19.300Z,94.000000
2022-11-16T15:30:22.327Z,94.000000
2022-11-16T15:35:25.522Z,93.909091
2022-11-16T15:40:40.796Z,93.363636
2022-11-16T15:45:19.701Z,93.000000
2022-11-16T15:50:22.860Z,93.909091
2022-11-16T15:55:28.923Z,94.000000
2022-11-16T16:00:29.097Z,94.000000
2022-11-16T16:05:23.904Z,94.000000
2022-11-16T16:10:23.217Z,94.166667
2022-11-16T16:15:26.382Z,94.000000
2022-11-16T16:20:29.697Z,94.000000
2022-11-16T16:25:20.607Z,94.000000
2022-11-16T16:30:23.705Z,94.083333
2022-11-16T16:35:29.082Z,94.000000
2022-11-16T16:40:30.053Z,94.000000
2022-11-16T16:45:21.006Z,93.800000
2022-11-16T16:50:24.181Z,92.909091
2022-11-16T16:55:32.840Z,90.818182
2022-11-16T17:00:30.473Z,87.500000
2022-11-16T17:05:21.492Z,86.538462
2022-11-16T17:10:24.776Z,86.000000
2022-11-16T17:15:29.035Z,86.000000
2022-11-16T17:20:19.009Z,86.000000
2022-11-16T17:25:22.451Z,86.583333
2022-11-16T17:30:25.355Z,87.818182
2022-11-16T17:35:29.457Z,87.384615
2022-11-16T17:40:19.597Z,86.000000
2022-11-16T17:45:22.632Z,86.000000
2022-11-16T17:50:25.723Z,86.000000
2022-11-16T17:55:29.606Z,86.538462
2022-11-16T18:00:19.855Z,87.727273
2022-11-16T18:05:23.067Z,88.230769
2022-11-16T18:10:26.192Z,88.916667
2022-11-16T18:15:29.670Z,89.500000
2022-11-16T18:20:20.370Z,90.000000
2022-11-16T18:25:23.559Z,90.000000
2022-11-16T18:30:26.832Z,90.000000
2022-11-16T18:35:29.995Z,89.090909
2022-11-16T18:40:20.788Z,88.000000
2022-11-16T18:45:23.892Z,88.000000
2022-11-16T18:50:29.921Z,87.400000
2022-11-16T18:55:30.241Z,87.909091
2022-11-16T19:00:21.310Z,88.000000
2022-11-16T19:05:24.548Z,88.538462
2022-11-16T19:10:27.480Z,89.000000
2022-11-16T19:15:30.581Z,88.800000
2022-11-16T19:20:22.165Z,87.714286
2022-11-16T19:25:25.168Z,87.000000
2022-11-16T19:30:30.147Z,87.100000
2022-11-16T19:35:19.400Z,88.000000
2022-11-16T19:40:25.154Z,88.090909
2022-11-16T19:45:25.717Z,88.600000
2022-11-16T19:50:30.424Z,89.000000
2022-11-16T19:55:19.870Z,89.000000
2022-11-16T20:00:22.928Z,88.090909
2022-11-16T20:05:26.113Z,87.500000
2022-11-16T20:10:30.424Z,86.444444
2022-11-16T20:15:20.201Z,85.272727
2022-11-16T20:20:23.703Z,85.416667
2022-11-16T20:25:26.762Z,85.666667
2022-11-16T20:30:30.594Z,84.000000
2022-11-16T20:35:20.928Z,84.000000
2022-11-16T20:40:18.906Z,84.000000
2022-11-16T20:45:18.921Z,85.250000
2022-11-16T20:50:18.922Z,86.181818
2022-11-16T20:55:21.356Z,87.000000
2022-11-16T21:00:19.006Z,87.000000
2022-11-16T21:05:18.831Z,87.636364
2022-11-16T21:10:18.927Z,85.500000
2022-11-16T21:15:21.789Z,83.363636
2022-11-16T21:20:27.935Z,82.416667
2022-11-16T21:25:18.837Z,83.181818
2022-11-16T21:30:19.676Z,84.000000
2022-11-16T21:35:19.360Z,84.583333
2022-11-16T21:40:19.351Z,85.166667
2022-11-16T21:45:19.325Z,86.000000
2022-11-16T21:50:35.272Z,86.444444
2022-11-16T21:55:20.333Z,85.272727
2022-11-16T22:00:26.133Z,84.222222
2022-11-16T22:05:19.630Z,84.000000
2022-11-16T22:10:20.247Z,84.000000
2022-11-16T22:15:19.257Z,84.000000
2022-11-16T22:20:19.297Z,84.833333
2022-11-16T22:25:19.359Z,85.000000
2022-11-16T22:30:21.405Z,85.000000
2022-11-16T22:35:19.725Z,84.916667
2022-11-16T22:40:27.470Z,85.000000
2022-11-16T22:45:31.847Z,85.111111
2022-11-16T22:50:21.608Z,86.000000
2022-11-16T22:55:19.711Z,86.000000
2022-11-16T23:00:19.702Z,86.750000
2022-11-16T23:05:19.924Z,87.818182
2022-11-16T23:10:22.138Z,88.000000
2022-11-16T23:15:19.827Z,88.000000
2022-11-16T23:20:19.832Z,88.909091
2022-11-16T23:25:19.818Z,89.000000
2022-11-16T23:30:19.709Z,89.000000
2022-11-16T23:35:20.848Z,89.000000
2022-11-16T23:40:20.122Z,89.111111
2022-11-16T23:45:20.234Z,89.777778
2022-11-16T23:50:20.215Z,90.000000
2022-11-16T23:55:20.278Z,90.000000
